Atkins, IA (52206)

8:14 PM CDT on July 29, 2016 (GMT -0500)
Ridgeview Estates | | Change Station

Elev 860 ft 41.99 °N, 91.85 °W | Updated 1 minute ago

Overcast
Overcast
69.4 °F
Feels Like 69.4 °F
N
4.7
Wind Variable Wind from NNE

Today
High -- | Low -- °F
--% Chance of Precip.
Yesterday
High -- | Low -- °F
Precip. -- in
Pressure 29.96 in
Visibility 9.0 miles
Clouds Overcast 1600 ft
Dew Point 64 °F
Humidity 84%
Rainfall 0.00 in
Snow Depth Not available.
5:58 AM 8:28 PM
Waning Crescent, 17% visible
METAR KCID 300052Z 01007KT 9SM OVC016 21/20 A2997 RMK AO2 SLP144 T02060200
Pressure 29.96 in
Visibility 9.0 miles
Clouds Overcast 1600 ft
Dew Point 64 °F
Humidity 84%
Rainfall 0.00 in
Snow Depth Not available.
5:58 AM 8:28 PM
Waning Crescent, 17% visible
METAR KCID 300052Z 01007KT 9SM OVC016 21/20 A2997 RMK AO2 SLP144 T02060200

10-Day Weather Forecast

Almanac

Astronomy

Jul. 29, 2016 Rise Set
Actual Time
Civil Twilight
Nautical Twilight
Astronomical Twilight
Moon
Length of Visible Light
Length of Day
Tomorrow will be .
, % of the Moon is Illuminated

Today's Extremes

State Highs State Lows

Community

WunderPhotos

Upload Photos

1,928,464 photos uploaded!

WunderBlog® & News

Nearby

Air Quality

  Air Quality AQ Index Pollutant
Not available.

Snow Depth

Station Depth Elevation

Earthquake Activity

City Distance Mag. Time & Date
Minimum magnitude displayed is 2.5.

Coastal Water Temperatures

Place Temperature

Stations

Nearby Weather Stations

Station Location Temp. Windchill Dew Point Humidity Wind Precip. Elev Updated Type
                   

Watches & Warnings

There are currently no watches in effect.